Time;durP1;ratioP1;P1;durP2;ratioP2;P2;SDS_P1;SDS_P2;PMS_P1;PMS_P2;Temp;Humidity;BMP_temperature;BMP_pressure;BME280_temperature;BME280_humidity;BME280_pressure;Samples;Min_cycle;Max_cycle;Signal;HPM_P1;HPM_P2
2021/08/25 00:01:12;;;;;;;18.23;14.70;;;;;;;11.53;86.08;96224.81;5035317;28;20234;-77
2021/08/25 00:03:38;;;;;;;18.47;15.97;;;;;;;11.50;85.79;96219.91;5034417;28;20187;-77
2021/08/25 00:06:03;;;;;;;17.60;15.70;;;;;;;11.50;85.94;96217.28;5034576;28;20236;-78
2021/08/25 00:08:29;;;;;;;18.53;15.73;;;;;;;11.47;86.43;96222.75;5034075;28;20240;-78
2021/08/25 00:10:54;;;;;;;16.10;14.50;;;;;;;11.46;86.72;96221.13;5034274;28;20274;-78
2021/08/25 00:13:20;;;;;;;18.60;14.90;;;;;;;11.42;86.24;96224.13;5033662;28;20221;-78
2021/08/25 00:15:46;;;;;;;19.23;15.23;;;;;;;11.38;86.65;96227.94;5034097;28;20253;-78
2021/08/25 00:18:12;;;;;;;17.93;15.33;;;;;;;11.42;87.01;96217.16;5034116;28;20276;-78
2021/08/25 00:20:38;;;;;;;18.63;15.13;;;;;;;11.41;86.86;96218.13;5034135;28;20198;-79
2021/08/25 00:23:04;;;;;;;17.80;15.80;;;;;;;11.37;87.15;96215.91;5033433;28;20178;-78
2021/08/25 00:25:30;;;;;;;19.77;16.10;;;;;;;11.27;87.60;96211.53;5050740;28;20324;-79
2021/08/25 00:27:56;;;;;;;19.37;16.27;;;;;;;11.34;87.19;96204.81;5050452;28;20191;-78
2021/08/25 00:30:21;;;;;;;19.87;16.17;;;;;;;11.36;87.12;96202.09;5032840;28;20193;-79
2021/08/25 00:32:47;;;;;;;23.17;15.53;;;;;;;11.36;86.89;96199.47;5049983;28;20174;-79
2021/08/25 00:35:12;;;;;;;18.40;16.20;;;;;;;11.35;87.25;96197.84;5050692;28;20210;-79
2021/08/25 00:37:38;;;;;;;19.50;16.80;;;;;;;11.29;86.95;96196.59;5035055;28;20194;-80
2021/08/25 00:40:04;;;;;;;18.33;16.43;;;;;;;11.28;86.94;96192.38;5045442;28;20236;-79
2021/08/25 00:42:30;;;;;;;18.67;16.67;;;;;;;11.26;87.23;96201.25;5032815;28;20203;-79
2021/08/25 00:44:55;;;;;;;18.17;16.10;;;;;;;11.26;86.95;96193.47;5033486;28;20589;-79
2021/08/25 00:47:20;;;;;;;19.00;16.63;;;;;;;11.39;86.79;96187.97;5033729;28;20294;-78
2021/08/25 00:49:46;;;;;;;17.93;15.70;;;;;;;11.26;86.56;96178.69;5033708;28;20181;-79
2021/08/25 00:52:12;;;;;;;18.20;16.30;;;;;;;11.24;86.95;96182.38;5033233;28;20183;-79
2021/08/25 00:54:37;;;;;;;18.03;16.13;;;;;;;11.19;86.89;96176.75;5033265;28;20174;-79
2021/08/25 00:57:03;;;;;;;17.97;16.17;;;;;;;11.21;87.27;96183.47;5032098;28;20745;-80
2021/08/25 00:59:30;;;;;;;19.40;16.97;;;;;;;11.12;87.18;96186.06;5013973;28;20545;-79
2021/08/25 01:02:00;;;;;;;16.93;15.23;;;;;;;11.03;87.71;96188.50;5012958;28;20752;-79
2021/08/25 01:04:40;;;;;;;19.03;15.93;;;;;;;11.03;87.68;96185.09;5014795;28;20179;-80
2021/08/25 01:07:07;;;;;;;16.97;15.17;;;;;;;11.06;87.64;96183.06;5013266;28;20203;-79
2021/08/25 01:09:32;;;;;;;18.47;16.37;;;;;;;10.93;87.91;96187.66;5013381;28;20183;-79
2021/08/25 01:12:00;;;;;;;16.73;14.97;;;;;;;10.96;88.53;96179.63;5012895;28;20175;-78
2021/08/25 01:14:27;;;;;;;19.77;16.93;;;;;;;10.94;88.19;96170.31;5013933;28;20186;-78
2021/08/25 01:16:53;;;;;;;19.27;16.90;;;;;;;10.98;87.85;96172.50;5003977;28;20229;-78
2021/08/25 01:19:19;;;;;;;20.03;17.77;;;;;;;10.95;87.66;96169.34;5013493;28;20179;-78
2021/08/25 01:21:46;;;;;;;17.47;15.60;;;;;;;10.97;87.43;96165.66;5012434;28;20205;-78
2021/08/25 01:24:13;;;;;;;16.90;15.13;;;;;;;10.95;87.41;96164.13;5013141;28;20178;-79
2021/08/25 01:26:40;;;;;;;16.73;14.90;;;;;;;10.87;87.56;96164.84;5013151;28;20256;-78
2021/08/25 01:29:25;;;;;;;16.70;14.93;;;;;;;10.89;87.63;96160.31;5012953;28;20224;-78
2021/08/25 01:31:52;;;;;;;17.10;14.67;;;;;;;10.89;87.40;96155.13;5011320;28;20584;-79
2021/08/25 01:34:17;;;;;;;17.00;15.20;;;;;;;10.97;86.96;96152.69;5029272;28;20183;-78
2021/08/25 01:36:43;;;;;;;17.87;15.07;;;;;;;10.86;87.28;96155.38;5012663;28;20172;-78
2021/08/25 01:39:08;;;;;;;16.93;15.13;;;;;;;10.93;87.00;96146.09;5013062;28;20168;-77
2021/08/25 01:41:33;;;;;;;16.67;14.77;;;;;;;10.89;87.07;96149.94;5011905;28;20210;-78
2021/08/25 01:44:00;;;;;;;16.30;14.60;;;;;;;10.84;87.31;96146.91;4996761;28;20205;-78
2021/08/25 01:46:30;;;;;;;17.23;15.13;;;;;;;10.78;87.39;96147.47;5029249;28;20178;-78
2021/08/25 01:48:56;;;;;;;18.23;16.10;;;;;;;10.74;87.56;96146.06;5012391;28;20565;-78
2021/08/25 01:51:25;;;;;;;21.00;15.70;;;;;;;10.76;87.56;96147.56;4995650;28;20663;-78
2021/08/25 01:53:51;;;;;;;16.17;14.47;;;;;;;10.76;87.59;96157.97;5012846;28;20175;-78
2021/08/25 01:56:16;;;;;;;17.73;15.20;;;;;;;10.70;87.78;96160.28;5028972;28;20682;-78
2021/08/25 01:58:41;;;;;;;19.27;15.27;;;;;;;10.68;88.06;96155.22;5012338;28;20585;-78
2021/08/25 02:01:07;;;;;;;16.73;14.93;;;;;;;10.71;88.00;96154.97;5013449;28;20203;-78
2021/08/25 02:03:32;;;;;;;18.60;15.97;;;;;;;10.70;88.00;96152.50;5011822;28;20180;-78
2021/08/25 02:05:57;;;;;;;19.17;15.30;;;;;;;10.70;87.55;96150.72;5013347;28;20374;-79
2021/08/25 02:08:22;;;;;;;18.47;15.67;;;;;;;10.60;88.19;96152.47;5028400;28;20678;-78
2021/08/25 02:10:48;;;;;;;18.43;15.23;;;;;;;10.60;88.29;96149.03;5012007;28;20177;-78
2021/08/25 02:13:13;;;;;;;17.10;14.23;;;;;;;10.66;88.32;96153.69;5011536;28;20179;-78
2021/08/25 02:15:38;;;;;;;17.53;15.03;;;;;;;10.53;88.12;96153.13;5011813;28;20264;-79
2021/08/25 02:18:04;;;;;;;18.57;14.90;;;;;;;10.44;88.39;96142.59;5028235;28;20691;-78
2021/08/25 02:20:29;;;;;;;15.63;14.00;;;;;;;10.47;88.34;96142.31;5011181;28;20210;-78
2021/08/25 02:22:54;;;;;;;17.40;14.47;;;;;;;10.49;88.60;96139.56;4994874;28;20334;-77
2021/08/25 02:25:19;;;;;;;17.63;15.10;;;;;;;10.49;88.64;96140.41;5011866;28;20175;-78
2021/08/25 02:27:45;;;;;;;17.13;14.47;;;;;;;10.59;88.44;96137.81;5011190;28;20706;-79
2021/08/25 02:30:10;;;;;;;16.10;14.40;;;;;;;10.55;88.55;96140.84;5010297;28;20270;-79
2021/08/25 02:32:36;;;;;;;16.63;14.53;;;;;;;10.51;88.27;96135.06;5011138;28;20187;-78
2021/08/25 02:35:01;;;;;;;17.33;15.27;;;;;;;10.43;88.54;96132.34;5028202;28;20183;-79
2021/08/25 02:37:29;;;;;;;18.30;15.80;;;;;;;10.46;88.13;96127.69;5028101;28;20584;-78
2021/08/25 02:39:55;;;;;;;16.37;13.93;;;;;;;10.53;88.29;96121.97;5012502;28;20213;-78
2021/08/25 02:42:20;;;;;;;21.57;16.50;;;;;;;10.55;88.10;96125.25;5011344;28;20281;-78
2021/08/25 02:44:45;;;;;;;17.57;15.10;;;;;;;10.44;88.26;96124.41;5012983;28;20179;-78
2021/08/25 02:47:12;;;;;;;17.93;14.87;;;;;;;10.35;88.61;96124.38;5011636;28;20222;-78
2021/08/25 02:49:37;;;;;;;18.03;15.57;;;;;;;10.33;88.79;96124.50;5011499;28;20179;-78
2021/08/25 02:52:03;;;;;;;16.47;14.67;;;;;;;10.35;88.92;96125.22;5012218;28;20198;-78
2021/08/25 02:54:28;;;;;;;16.67;14.93;;;;;;;10.31;88.86;96121.22;5011357;28;20229;-78
2021/08/25 02:56:54;;;;;;;19.67;15.73;;;;;;;10.26;88.89;96115.63;5011075;28;20183;-78
2021/08/25 02:59:19;;;;;;;22.43;15.63;;;;;;;10.24;89.49;96122.69;5012560;28;20241;-78
2021/08/25 03:01:44;;;;;;;19.80;15.33;;;;;;;10.23;88.96;96125.41;5010774;28;20266;-78
2021/08/25 03:04:10;;;;;;;18.07;15.37;;;;;;;10.23;89.30;96118.44;5027757;28;20638;-78
2021/08/25 03:06:35;;;;;;;17.80;15.43;;;;;;;10.33;88.96;96110.69;5011409;28;20175;-78
2021/08/25 03:09:00;;;;;;;18.77;16.03;;;;;;;10.32;88.93;96111.66;5011076;28;20294;-78
2021/08/25 03:11:25;;;;;;;19.30;16.37;;;;;;;10.27;89.24;96117.25;5010467;28;20190;-78
2021/08/25 03:13:51;;;;;;;18.60;15.83;;;;;;;10.21;89.26;96115.16;5012244;28;20186;-78
2021/08/25 03:16:16;;;;;;;20.13;16.13;;;;;;;10.23;89.65;96110.66;5011191;28;20655;-78
2021/08/25 03:18:41;;;;;;;19.80;15.83;;;;;;;10.24;89.51;96108.88;4994591;28;20358;-78
2021/08/25 03:21:07;;;;;;;20.93;17.30;;;;;;;10.13;89.49;96105.41;5010859;28;20619;-78
2021/08/25 03:23:32;;;;;;;18.43;16.43;;;;;;;10.14;89.80;96106.22;5010355;28;20179;-78
2021/08/25 03:25:58;;;;;;;23.57;16.00;;;;;;;10.09;89.63;96100.63;5011241;28;20234;-79
2021/08/25 03:28:23;;;;;;;17.03;15.33;;;;;;;10.17;89.39;96100.81;5012912;28;20253;-79
2021/08/25 03:30:48;;;;;;;17.77;15.87;;;;;;;10.10;89.40;96105.69;4993661;28;20251;-79
2021/08/25 03:33:14;;;;;;;17.50;15.53;;;;;;;10.11;89.19;96093.53;5010557;28;20233;-78
2021/08/25 03:35:39;;;;;;;21.63;15.70;;;;;;;10.04;89.30;96095.00;5011702;28;20179;-79
2021/08/25 03:38:05;;;;;;;18.43;16.13;;;;;;;10.04;89.46;96090.63;5027810;28;20210;-79
2021/08/25 03:40:30;;;;;;;18.57;16.57;;;;;;;10.12;89.63;96097.75;5011560;28;20202;-78
2021/08/25 03:42:56;;;;;;;18.63;16.43;;;;;;;10.05;90.09;96086.25;5009955;28;20214;-78
2021/08/25 03:45:21;;;;;;;20.77;16.73;;;;;;;10.06;89.61;96085.31;5010877;28;20180;-79
2021/08/25 03:47:46;;;;;;;21.50;17.90;;;;;;;10.09;89.55;96093.66;5010898;28;20594;-78
2021/08/25 03:50:12;;;;;;;19.00;17.00;;;;;;;10.11;89.47;96075.38;5010834;28;20179;-78
2021/08/25 03:52:37;;;;;;;19.00;17.00;;;;;;;10.14;89.38;96085.47;5026588;28;20186;-79
2021/08/25 03:55:03;;;;;;;19.60;17.00;;;;;;;10.10;88.76;96081.50;5010548;28;20756;-79
2021/08/25 03:57:28;;;;;;;19.90;16.70;;;;;;;10.02;89.38;96076.16;5010211;28;20225;-79
2021/08/25 03:59:53;;;;;;;18.97;16.47;;;;;;;9.95;89.59;96070.66;5010603;28;20302;-79
2021/08/25 04:02:19;;;;;;;20.57;17.13;;;;;;;10.00;89.28;96073.69;5010312;28;20261;-79
2021/08/25 04:04:44;;;;;;;20.53;18.03;;;;;;;9.91;89.58;96075.31;5010719;28;20187;-78
2021/08/25 04:07:09;;;;;;;19.83;17.43;;;;;;;9.86;89.93;96072.25;5010887;28;20416;-78
2021/08/25 04:09:34;;;;;;;20.03;17.83;;;;;;;9.81;90.11;96071.03;5010520;28;20187;-78
2021/08/25 04:12:00;;;;;;;21.27;17.57;;;;;;;9.82;89.84;96070.91;5009960;28;20175;-79
2021/08/25 04:14:25;;;;;;;22.43;18.57;;;;;;;9.86;89.99;96067.06;5010390;28;20534;-79
2021/08/25 04:16:50;;;;;;;21.30;18.17;;;;;;;9.79;89.87;96068.53;5010443;28;20187;-79
2021/08/25 04:19:16;;;;;;;20.97;17.43;;;;;;;9.78;90.32;96064.31;5027092;28;20221;-77
2021/08/25 04:21:41;;;;;;;22.07;17.73;;;;;;;9.77;90.27;96077.41;5009959;28;20334;-79
2021/08/25 04:24:06;;;;;;;21.70;18.63;;;;;;;9.82;90.26;96073.50;5010537;28;20186;-80
2021/08/25 04:26:32;;;;;;;20.93;17.87;;;;;;;9.91;89.48;96077.06;5010268;28;20647;-78
2021/08/25 04:28:57;;;;;;;20.73;17.10;;;;;;;9.91;90.01;96079.66;5010219;28;20210;-80
2021/08/25 04:31:22;;;;;;;21.33;18.50;;;;;;;9.85;90.05;96080.19;5025084;28;20298;-78
2021/08/25 04:33:48;;;;;;;19.77;17.27;;;;;;;9.80;90.28;96075.38;5009930;28;20186;-77
2021/08/25 04:36:13;;;;;;;22.20;18.37;;;;;;;9.82;90.64;96077.84;5009825;28;20178;-77
2021/08/25 04:38:38;;;;;;;21.87;18.70;;;;;;;9.85;90.19;96075.81;5010376;28;20245;-80
2021/08/25 04:41:05;;;;;;;21.37;19.07;;;;;;;9.93;90.30;96075.16;5010106;28;20296;-78
2021/08/25 04:43:30;;;;;;;22.00;18.80;;;;;;;9.95;90.33;96070.66;5012425;28;20179;-78
2021/08/25 04:45:56;;;;;;;21.30;18.97;;;;;;;10.00;90.08;96078.06;5014919;28;20214;-77
2021/08/25 04:48:22;;;;;;;21.93;18.93;;;;;;;10.04;89.74;96085.44;5014149;28;20234;-78
2021/08/25 04:50:47;;;;;;;23.63;18.17;;;;;;;10.13;89.49;96083.84;5013937;28;20325;-78
2021/08/25 04:53:12;;;;;;;23.77;19.17;;;;;;;10.08;89.67;96083.41;5013157;28;20180;-78
2021/08/25 04:55:38;;;;;;;22.37;19.03;;;;;;;10.14;89.35;96082.88;5013602;28;20211;-77
2021/08/25 04:58:04;;;;;;;24.30;19.47;;;;;;;10.56;88.40;96087.94;5013376;28;20721;-78
2021/08/25 05:00:29;;;;;;;21.17;18.57;;;;;;;11.31;85.73;96085.50;5013584;28;20550;-78
2021/08/25 05:02:55;;;;;;;17.73;15.57;;;;;;;11.89;82.13;96085.38;5029258;28;20211;-81
2021/08/25 05:05:20;;;;;;;18.17;15.30;;;;;;;12.32;80.30;96085.75;5013492;28;20186;-78
2021/08/25 05:07:45;;;;;;;16.43;14.77;;;;;;;12.27;78.95;96085.34;4997095;28;20311;-78
2021/08/25 05:10:11;;;;;;;17.53;14.97;;;;;;;11.83;79.71;96078.13;5013319;28;20180;-78
2021/08/25 05:12:36;;;;;;;16.67;14.20;;;;;;;11.64;80.58;96079.00;5029242;28;20266;-77
2021/08/25 05:15:02;;;;;;;17.83;15.50;;;;;;;11.52;81.04;96085.31;5013382;28;20194;-77
2021/08/25 05:17:27;;;;;;;17.37;14.33;;;;;;;11.26;82.45;96084.28;4996609;28;20206;-78
2021/08/25 05:19:53;;;;;;;17.03;15.23;;;;;;;11.41;82.38;96082.06;5013044;28;20179;-79
2021/08/25 05:22:18;;;;;;;16.83;15.00;;;;;;;11.38;82.42;96087.53;5013481;28;20210;-82
2021/08/25 05:24:43;;;;;;;16.93;15.13;;;;;;;11.40;82.60;96091.66;5012811;28;20705;-76
2021/08/25 05:27:09;;;;;;;18.63;16.57;;;;;;;11.16;83.66;96093.84;5013417;28;20206;-76
2021/08/25 05:29:34;;;;;;;17.77;15.63;;;;;;;11.16;83.88;96104.25;5014492;28;20597;-78
2021/08/25 05:31:59;;;;;;;19.50;15.50;;;;;;;11.46;82.92;96096.28;5012454;28;20202;-78
2021/08/25 05:34:24;;;;;;;17.93;15.87;;;;;;;11.37;82.99;96101.50;5013352;28;20262;-78
2021/08/25 05:36:50;;;;;;;19.37;14.90;;;;;;;11.40;83.21;96099.47;5012918;28;20262;-79
2021/08/25 05:39:15;;;;;;;16.40;14.70;;;;;;;11.34;83.39;96100.00;5015287;28;20190;-79
2021/08/25 05:41:40;;;;;;;19.30;16.53;;;;;;;11.33;83.82;96099.19;5009300;28;20577;-79
2021/08/25 05:44:06;;;;;;;19.30;15.40;;;;;;;11.35;83.91;96099.03;5013810;28;20199;-79
2021/08/25 05:46:32;;;;;;;18.97;15.50;;;;;;;11.53;83.56;96107.78;5014908;28;20195;-82
2021/08/25 05:48:58;;;;;;;15.90;14.20;;;;;;;11.62;82.65;96108.72;5030578;28;20200;-78
2021/08/25 05:51:24;;;;;;;17.03;15.13;;;;;;;11.64;83.02;96115.41;5040462;28;20183;-78
2021/08/25 05:53:51;;;;;;;16.90;14.57;;;;;;;11.53;83.57;96112.97;5032971;28;20200;-79
2021/08/25 05:56:17;;;;;;;17.37;14.93;;;;;;;11.59;83.27;96102.00;5015871;28;20186;-79
2021/08/25 05:58:42;;;;;;;17.13;15.17;;;;;;;11.57;83.32;96097.88;5032830;28;20206;-78
2021/08/25 06:01:07;;;;;;;17.30;15.47;;;;;;;11.59;83.69;96109.81;5032876;28;20244;-77
2021/08/25 06:03:33;;;;;;;15.97;14.27;;;;;;;11.77;83.53;96109.91;5012259;28;20233;-79
2021/08/25 06:05:58;;;;;;;16.70;14.87;;;;;;;11.82;82.88;96112.94;5049051;28;20653;-79
2021/08/25 06:08:23;;;;;;;15.87;14.10;;;;;;;11.92;82.48;96105.09;5012601;28;20210;-79
2021/08/25 06:10:49;;;;;;;15.83;14.13;;;;;;;11.87;83.22;96107.31;5030362;28;20186;-78
2021/08/25 06:13:14;;;;;;;16.57;14.70;;;;;;;11.93;82.58;96098.94;5022484;28;20638;-79
2021/08/25 06:15:40;;;;;;;17.13;14.30;;;;;;;11.97;82.42;96095.09;5047412;28;20210;-78
2021/08/25 06:18:05;;;;;;;15.50;13.90;;;;;;;12.12;81.42;96100.66;5031497;28;20237;-79
2021/08/25 06:20:30;;;;;;;17.00;13.87;;;;;;;12.15;81.35;96103.78;5048456;28;20183;-79
2021/08/25 06:22:55;;;;;;;14.97;13.37;;;;;;;12.15;81.80;96103.78;5031121;28;20642;-77
2021/08/25 06:25:21;;;;;;;17.57;13.83;;;;;;;12.01;82.21;96096.44;5048440;28;20186;-78
2021/08/25 06:27:46;;;;;;;16.63;14.07;;;;;;;12.14;81.38;96102.13;5050757;28;20258;-77
2021/08/25 06:30:12;;;;;;;16.77;12.97;;;;;;;12.16;80.63;96100.22;5037734;28;20186;-78
2021/08/25 06:32:38;;;;;;;14.17;12.73;;;;;;;12.32;80.36;96097.00;5035515;28;20253;-79
2021/08/25 06:35:04;;;;;;;14.70;13.07;;;;;;;12.33;80.59;96097.81;5049907;28;20585;-79
2021/08/25 06:37:29;;;;;;;16.23;12.90;;;;;;;12.37;80.48;96100.00;5049506;28;20290;-78
2021/08/25 06:39:55;;;;;;;14.57;13.17;;;;;;;12.45;79.88;96101.84;5032794;28;20182;-79
2021/08/25 06:42:20;;;;;;;14.53;12.43;;;;;;;12.36;80.77;96098.31;5031980;28;20206;-78
2021/08/25 06:44:45;;;;;;;16.20;12.20;;;;;;;12.57;80.09;96100.69;5049537;28;20183;-78
2021/08/25 06:47:11;;;;;;;12.97;11.53;;;;;;;12.66;79.85;96096.41;5032585;28;20249;-78
2021/08/25 06:49:36;;;;;;;14.20;12.03;;;;;;;12.75;79.70;96103.34;5016955;28;20546;-78
2021/08/25 06:52:01;;;;;;;14.73;11.87;;;;;;;12.71;79.29;96104.56;5034008;28;20175;-78
2021/08/25 06:54:26;;;;;;;13.10;11.10;;;;;;;12.87;78.85;96103.94;5032815;28;20183;-79
2021/08/25 06:56:52;;;;;;;11.90;10.77;;;;;;;12.92;77.85;96109.53;5032103;28;20877;-79
2021/08/25 06:59:17;;;;;;;14.00;11.60;;;;;;;12.94;78.20;96099.75;5031901;28;20642;-79
2021/08/25 07:01:43;;;;;;;13.30;11.47;;;;;;;13.08;77.12;96095.84;5049094;28;20198;-78
2021/08/25 07:04:08;;;;;;;12.67;10.90;;;;;;;13.06;76.84;96098.56;5032332;28;20189;-78
2021/08/25 07:06:34;;;;;;;14.67;11.60;;;;;;;12.90;76.50;96099.25;5033429;28;20179;-78
2021/08/25 07:08:59;;;;;;;13.47;12.03;;;;;;;13.24;76.99;96083.75;5047755;28;20206;-77
2021/08/25 07:11:24;;;;;;;13.87;11.47;;;;;;;13.40;76.04;96090.06;5047857;28;20174;-78
2021/08/25 07:13:50;;;;;;;11.70;10.57;;;;;;;13.35;76.26;96094.94;5034161;28;20174;-78
2021/08/25 07:16:16;;;;;;;13.07;10.80;;;;;;;13.48;75.42;96087.53;5032791;28;20570;-79
2021/08/25 07:18:43;;;;;;;12.87;10.07;;;;;;;13.53;74.57;96091.34;5056490;28;20726;-80
2021/08/25 07:21:10;;;;;;;11.40;10.20;;;;;;;13.52;75.04;96088.88;5051364;28;20189;-80
2021/08/25 07:23:35;;;;;;;13.97;11.07;;;;;;;13.66;74.57;96090.09;5041829;28;20189;-79
2021/08/25 07:26:00;;;;;;;12.30;10.37;;;;;;;13.80;74.79;96087.75;5050284;28;20186;-80
2021/08/25 07:28:26;;;;;;;10.47;9.37;;;;;;;13.82;74.45;96090.19;5033369;28;20202;-79
2021/08/25 07:30:51;;;;;;;10.43;9.43;;;;;;;13.99;74.60;96083.28;5033513;28;20197;-77
2021/08/25 07:33:18;;;;;;;9.47;8.47;;;;;;;14.29;73.76;96087.16;5018992;28;20194;-78
2021/08/25 07:35:46;;;;;;;10.90;9.27;;;;;;;14.35;73.51;96082.13;5033444;28;20602;-77
2021/08/25 07:38:12;;;;;;;9.87;8.83;;;;;;;14.55;72.49;96087.94;5047720;28;20194;-78
2021/08/25 07:40:38;;;;;;;9.07;8.03;;;;;;;14.53;72.80;96094.31;5030790;28;20586;-77
2021/08/25 07:43:03;;;;;;;9.80;8.37;;;;;;;14.78;70.67;96088.19;5030168;28;20214;-78
2021/08/25 07:45:28;;;;;;;9.80;8.20;;;;;;;14.90;71.58;96086.06;5014015;28;20185;-78
2021/08/25 07:47:54;;;;;;;9.93;7.73;;;;;;;14.88;70.39;96083.63;5031679;28;20216;-77
2021/08/25 07:50:19;;;;;;;8.73;7.80;;;;;;;14.98;69.30;96084.28;5030327;28;20499;-78
2021/08/25 07:52:44;;;;;;;8.73;7.50;;;;;;;14.72;69.73;96081.78;5030628;28;20175;-76
2021/08/25 07:55:10;;;;;;;9.87;7.37;;;;;;;14.97;68.59;96082.66;5031693;28;20230;-78
2021/08/25 07:57:35;;;;;;;10.03;7.87;;;;;;;15.08;70.09;96088.53;5046802;28;20217;-78
2021/08/25 08:00:01;;;;;;;11.43;7.50;;;;;;;14.84;69.12;96087.53;5014077;28;20178;-78
2021/08/25 08:02:26;;;;;;;8.63;6.80;;;;;;;14.86;67.97;96074.31;5046646;28;20198;-77
2021/08/25 08:04:51;;;;;;;14.27;7.43;;;;;;;14.95;67.59;96074.16;5032073;28;20183;-77
2021/08/25 08:07:17;;;;;;;8.53;7.30;;;;;;;14.85;67.12;96083.13;5032446;28;20597;-78
2021/08/25 08:09:42;;;;;;;8.97;7.00;;;;;;;15.13;68.38;96073.19;5046915;28;20182;-78
2021/08/25 08:12:07;;;;;;;9.37;7.67;;;;;;;15.25;66.89;96075.31;5023240;28;20679;-77
2021/08/25 08:14:33;;;;;;;7.47;6.37;;;;;;;15.23;66.85;96066.00;5035050;28;20332;-78
2021/08/25 08:17:01;;;;;;;7.67;6.87;;;;;;;15.37;66.13;96073.19;5030928;28;20179;-78
2021/08/25 08:19:30;;;;;;;8.67;6.93;;;;;;;15.41;65.38;96084.16;5016786;28;20242;-79
2021/08/25 08:21:57;;;;;;;8.90;7.17;;;;;;;15.37;65.91;96081.03;5018127;28;20202;-77
2021/08/25 08:24:22;;;;;;;6.97;6.27;;;;;;;15.52;64.82;96079.38;5019271;28;20244;-78
2021/08/25 08:26:48;;;;;;;8.60;6.37;;;;;;;15.52;65.87;96082.00;5012465;28;20174;-78
2021/08/25 08:29:13;;;;;;;6.47;5.83;;;;;;;15.78;65.01;96078.41;5066663;28;20185;-77
2021/08/25 08:31:39;;;;;;;10.10;6.88;;;;;;;15.80;64.58;96086.91;5047879;28;20179;-77
2021/08/25 08:34:04;;;;;;;6.70;5.90;;;;;;;15.89;64.66;96083.28;5045760;28;20209;-79
2021/08/25 08:36:30;;;;;;;8.52;6.70;;;;;;;15.77;63.66;96090.69;5057484;28;20638;-78
2021/08/25 08:38:55;;;;;;;7.82;6.47;;;;;;;15.73;62.91;96088.56;5063037;28;20228;-77
2021/08/25 08:41:20;;;;;;;6.30;5.60;;;;;;;15.86;62.48;96081.00;5061304;28;20203;-78
2021/08/25 08:43:49;;;;;;;8.85;6.38;;;;;;;15.78;61.22;96078.41;5060446;28;20193;-77
2021/08/25 08:46:15;;;;;;;6.88;6.07;;;;;;;15.94;61.05;96080.16;5062717;28;20178;-77
2021/08/25 08:48:41;;;;;;;7.38;5.95;;;;;;;16.04;61.45;96086.03;5046578;28;20347;-76
2021/08/25 08:51:08;;;;;;;9.80;6.80;;;;;;;15.99;62.29;96078.69;5045627;28;20175;-77
2021/08/25 08:53:34;;;;;;;8.68;5.78;;;;;;;16.24;61.62;96091.69;5044456;28;20183;-77
2021/08/25 08:55:59;;;;;;;9.27;6.43;;;;;;;15.95;61.03;96082.63;5047918;28;20189;-76
2021/08/25 08:58:24;;;;;;;9.15;6.00;;;;;;;16.24;62.02;96083.84;5048612;28;20218;-77
2021/08/25 09:00:50;;;;;;;6.82;6.13;;;;;;;16.28;61.67;96085.16;5046824;28;20190;-76
2021/08/25 09:03:23;;;;;;;6.68;5.75;;;;;;;16.34;60.61;96077.44;5052951;28;20600;-77
2021/08/25 09:05:59;;;;;;;6.68;5.68;;;;;;;16.55;59.46;96079.44;5051803;28;20174;-79
2021/08/25 09:08:29;;;;;;;8.07;6.95;;;;;;;16.68;59.56;96071.84;5037155;28;20666;-79
2021/08/25 09:11:10;;;;;;;7.80;6.97;;;;;;;16.23;59.37;96077.78;5051888;28;20198;-78
2021/08/25 09:13:50;;;;;;;8.65;6.35;;;;;;;16.46;59.16;96080.47;5051895;28;20266;-78
2021/08/25 09:16:34;;;;;;;7.28;5.72;;;;;;;16.55;58.50;96073.41;5051027;28;20549;-78
2021/08/25 09:19:08;;;;;;;7.97;5.82;;;;;;;16.73;60.61;96079.22;5048308;28;20198;-78
2021/08/25 09:21:42;;;;;;;6.22;5.63;;;;;;;17.04;58.34;96079.19;5028236;28;20198;-78
2021/08/25 09:24:09;;;;;;;7.13;6.00;;;;;;;17.09;59.16;96070.81;5043569;28;20179;-79
2021/08/25 09:26:36;;;;;;;8.48;6.05;;;;;;;17.34;57.63;96077.50;5008993;28;20190;-78
2021/08/25 09:29:18;;;;;;;6.82;6.15;;;;;;;17.04;58.46;96081.81;5025498;28;20194;-78
2021/08/25 09:31:48;;;;;;;7.30;5.88;;;;;;;17.27;59.81;96069.50;5026363;28;20183;-78
2021/08/25 09:34:42;;;;;;;9.32;6.45;;;;;;;17.24;57.88;96077.75;5042598;28;20214;-77
2021/08/25 09:37:14;;;;;;;7.22;6.10;;;;;;;17.18;58.04;96080.25;5022663;28;20221;-77
2021/08/25 09:39:47;;;;;;;6.25;5.30;;;;;;;17.36;56.59;96078.13;5023362;28;20828;-76
2021/08/25 09:42:16;;;;;;;6.00;5.22;;;;;;;16.76;54.25;96080.69;5017361;28;20207;-76
2021/08/25 09:44:42;;;;;;;5.93;5.35;;;;;;;16.98;55.54;96072.03;4986293;28;20189;-77
2021/08/25 09:47:07;;;;;;;8.32;5.15;;;;;;;17.14;55.00;96073.69;5002886;28;20234;-78
2021/08/25 09:49:33;;;;;;;9.40;6.15;;;;;;;17.40;54.91;96066.25;4988581;28;20260;-79
2021/08/25 09:51:58;;;;;;;6.88;5.82;;;;;;;17.61;55.85;96062.97;4990757;28;20172;-79
2021/08/25 09:54:23;;;;;;;7.18;5.78;;;;;;;17.54;55.26;96059.44;4984424;28;20191;-79
2021/08/25 09:56:53;;;;;;;6.43;5.82;;;;;;;17.53;55.66;96057.81;4999727;28;20198;-77
2021/08/25 09:59:19;;;;;;;9.20;6.13;;;;;;;17.15;56.96;96065.69;5030647;28;20659;-80
2021/08/25 10:01:45;;;;;;;7.05;5.93;;;;;;;17.09;55.02;96065.56;4987847;28;20208;-76
2021/08/25 10:04:13;;;;;;;7.22;6.40;;;;;;;17.11;55.34;96067.00;4987808;28;20183;-77
2021/08/25 10:06:40;;;;;;;7.78;7.00;;;;;;;17.03;56.75;96067.06;5005951;28;20206;-77
2021/08/25 10:09:07;;;;;;;8.98;7.60;;;;;;;16.60;56.69;96066.63;4988097;28;20671;-77
2021/08/25 10:11:37;;;;;;;10.50;7.05;;;;;;;16.56;57.10;96067.97;4990030;28;20625;-77
2021/08/25 10:14:11;;;;;;;9.20;7.57;;;;;;;16.82;55.90;96075.56;4991040;28;20281;-77
2021/08/25 10:16:38;;;;;;;9.80;7.72;;;;;;;17.05;56.69;96072.13;5005317;28;20183;-77
2021/08/25 10:19:29;;;;;;;7.50;6.22;;;;;;;17.10;58.10;96070.63;5010090;28;20192;-77
2021/08/25 10:22:16;;;;;;;11.23;7.43;;;;;;;17.01;57.63;96060.34;5003158;28;20194;-77
2021/08/25 10:24:53;;;;;;;8.15;7.35;;;;;;;17.06;58.09;96065.91;5035036;28;20190;-76
2021/08/25 10:27:23;;;;;;;8.27;7.47;;;;;;;17.13;55.93;96066.81;5023658;28;20202;-77
2021/08/25 10:30:01;;;;;;;7.45;6.65;;;;;;;17.43;57.65;96054.63;5013830;28;20221;-77
2021/08/25 10:32:31;;;;;;;8.30;7.00;;;;;;;17.41;53.90;96060.06;5012084;28;20720;-77
2021/08/25 10:35:11;;;;;;;11.38;7.68;;;;;;;17.68;55.16;96055.22;5016996;28;20182;-76
2021/08/25 10:37:37;;;;;;;8.57;7.68;;;;;;;17.59;56.69;96051.03;5022981;28;20213;-76
2021/08/25 10:40:04;;;;;;;6.85;6.15;;;;;;;17.74;53.90;96044.00;5021366;28;20186;-77
2021/08/25 10:42:42;;;;;;;6.80;6.10;;;;;;;17.97;54.93;96030.78;5038249;28;20198;-76
2021/08/25 10:45:08;;;;;;;7.35;6.07;;;;;;;17.88;50.61;96039.75;5037646;28;20232;-77
2021/08/25 10:47:59;;;;;;;7.32;5.97;;;;;;;18.14;52.32;96029.59;5035893;28;20202;-77
2021/08/25 10:50:54;;;;;;;6.45;5.82;;;;;;;17.79;52.71;96034.59;5004740;28;20175;-77
2021/08/25 10:53:28;;;;;;;6.30;5.38;;;;;;;17.94;52.96;96026.72;5019960;28;20205;-76
2021/08/25 10:56:14;;;;;;;9.25;5.80;;;;;;;18.04;51.56;96023.81;5021921;28;20620;-77
2021/08/25 10:58:46;;;;;;;7.20;6.05;;;;;;;18.35;50.44;96018.34;5037372;28;20986;-77
2021/08/25 11:01:41;;;;;;;6.93;5.95;;;;;;;18.80;50.41;96027.75;5019550;28;20232;-77
2021/08/25 11:04:17;;;;;;;7.65;6.05;;;;;;;18.40;50.80;96010.72;5021189;28;20174;-77
2021/08/25 11:06:44;;;;;;;8.18;6.35;;;;;;;18.38;51.42;96013.53;5027717;28;20654;-77
2021/08/25 11:09:31;;;;;;;7.57;5.45;;;;;;;18.42;49.22;96013.16;5030411;28;20550;-77
2021/08/25 11:12:10;;;;;;;9.00;5.88;;;;;;;18.46;48.55;96011.78;5024532;28;20178;-77
2021/08/25 11:14:44;;;;;;;6.88;4.50;;;;;;;18.71;48.13;96005.22;5030456;28;20180;-76
2021/08/25 11:17:14;;;;;;;5.75;4.97;;;;;;;18.72;48.80;96004.19;5030573;28;20226;-78
2021/08/25 11:19:47;;;;;;;6.32;5.13;;;;;;;18.54;50.01;96006.41;5032299;28;20609;-78
2021/08/25 11:22:16;;;;;;;7.53;5.80;;;;;;;18.58;48.30;95999.78;5031360;28;20229;-77